Perry County Municipal, IN

4:14 AM CDT on July 30, 2014 (GMT -0500)
RMR - Owensboro (KKYOWENS12) Elev 387 ft | 37.83 °N, 87.02 °W | Change Station

Current weather conditions updated 10 minutes ago

Clear
Clear
58.7 °F
Feels Like 58.7 °F
N
0.0
Wind Variable Wind from North
Gusts 0.0 mph

Today is forecast to be Warmer than yesterday.

Today
High -- | Low -- °F
--% Chance of Precip.
Yesterday
High -- | Low -- °F
Precip. -- in
5:48 AM 7:57 PM
Waxing Crescent, 10% visible
Pressure 30.07 in
Visibility 10.0 miles
Clouds Clear
Dew Point 56 °F
Humidity 92%
Rainfall 0.00 in
Snow Depth Not available.
UV 0 out of 12
Pollen 5.70 out of 12
Air Quality Not available.
Flu Activity Not available.
METAR KOWB 300856Z AUTO 00000KT 10SM CLR 14/13 A3008 RMK AO2 58004 T01440133 SLP182

More Conditions Fewer Conditions

Pressure 30.07 in
Visibility 10.0 miles
Clouds Clear
Dew Point 56 °F
Humidity 92%
Rainfall 0.00 in
Snow Depth Not available.
UV 0 out of 12
Pollen 5.70 out of 12
Air Quality Not available.
Flu Activity Not available.
METAR KOWB 300856Z AUTO 00000KT 10SM CLR 14/13 A3008 RMK AO2 58004 T01440133 SLP182

More Conditions Fewer Conditions

10-Day Weather Forecast

Almanac

Astronomy

Jul. 30, 2014 Rise Set
Actual Time 5:48 AM CDT 7:57 PM CDT
Civil Twilight 5:18 AM CDT 8:27 PM CDT
Nautical Twilight 4:42 AM CDT 9:03 PM CDT
Astronomical Twilight 4:03 AM CDT 9:41 PM CDT
Moon 9:15 AM CDT 9:44 PM CDT
Length of Visible Light 15h 08m
Length of Day
14h 09m
Tomorrow will be 1m 48s shorter.
Waxing Crescent, 10% of the Moon is Illuminated
Today
Waxing Crescent
Aug 3
First Quarter
Aug 10
Full
Aug 17
Last Quarter
Aug 25
New

Today's Extremes

State Highs State Lows

Community

WunderPhotos

Upload Photos

1,739,018 photos uploaded!

WunderBlogs® & News

By Dr. Jeff Masters
Director of Meteorology, Weather Underground
By Kari Strenfel
Meteorologist, Weather Underground
By Christopher C. Burt
Weather Historian, Weather Underground
July 29, 2014
July 29, 2014
July 29, 2014

Nearby

Snow Depth

Station Depth Elevation
No new snow has been reported.

Earthquake Activity

City Distance Mag. Time & Date
No recent earthquake activity has been reported nearby.
Minimum magnitude displayed is 2.5.

Coastal Water Temperatures

Place Temperature
No Stations Reporting

Nearby Weather Stations

Station Location Temp. Dew Point Humidity Wind Precip. Elev Updated Type
RMR - Owensboro, Owensboro, KY 58.7 °F 56 °F 92% North  at  0.0 mph 0.00 in / hr 387 ft 4:04 AM CDT Normal

Show More Stations Show Fewer Stations